sensor_id;sensor_type;location;lat;lon;timestamp;temperature;humidity
25906;DHT22;13713;52.552;13.204;2023-05-07T00:00:02;17.60;56.90
25906;DHT22;13713;52.552;13.204;2023-05-07T00:02:29;17.60;56.90
25906;DHT22;13713;52.552;13.204;2023-05-07T00:04:55;17.60;56.90
25906;DHT22;13713;52.552;13.204;2023-05-07T00:07:20;17.60;56.90
25906;DHT22;13713;52.552;13.204;2023-05-07T00:09:46;17.60;56.90
25906;DHT22;13713;52.552;13.204;2023-05-07T00:12:12;17.60;56.90
25906;DHT22;13713;52.552;13.204;2023-05-07T00:14:37;17.50;56.90
25906;DHT22;13713;52.552;13.204;2023-05-07T00:17:03;17.60;56.90
25906;DHT22;13713;52.552;13.204;2023-05-07T00:19:29;17.60;57.00
25906;DHT22;13713;52.552;13.204;2023-05-07T00:21:55;17.60;57.00
25906;DHT22;13713;52.552;13.204;2023-05-07T00:24:21;17.60;57.00
25906;DHT22;13713;52.552;13.204;2023-05-07T00:26:47;17.60;57.60
25906;DHT22;13713;52.552;13.204;2023-05-07T00:29:12;17.50;56.90
25906;DHT22;13713;52.552;13.204;2023-05-07T00:31:38;17.60;57.00
25906;DHT22;13713;52.552;13.204;2023-05-07T00:34:03;17.60;57.00
25906;DHT22;13713;52.552;13.204;2023-05-07T00:36:29;17.60;57.00
25906;DHT22;13713;52.552;13.204;2023-05-07T00:38:57;17.60;57.00
25906;DHT22;13713;52.552;13.204;2023-05-07T00:41:24;17.60;57.00
25906;DHT22;13713;52.552;13.204;2023-05-07T00:43:50;17.60;57.00
25906;DHT22;13713;52.552;13.204;2023-05-07T00:46:17;17.60;57.00
25906;DHT22;13713;52.552;13.204;2023-05-07T00:48:43;17.50;56.90
25906;DHT22;13713;52.552;13.204;2023-05-07T00:51:10;17.60;57.00
25906;DHT22;13713;52.552;13.204;2023-05-07T00:53:37;17.50;57.00
25906;DHT22;13713;52.552;13.204;2023-05-07T00:56:03;17.50;57.00
25906;DHT22;13713;52.552;13.204;2023-05-07T00:58:29;17.50;57.00
25906;DHT22;13713;52.552;13.204;2023-05-07T01:00:55;17.60;57.10
25906;DHT22;13713;52.552;13.204;2023-05-07T01:03:21;17.50;57.00
25906;DHT22;13713;52.552;13.204;2023-05-07T01:05:48;17.50;57.00
25906;DHT22;13713;52.552;13.204;2023-05-07T01:08:16;17.50;57.00
25906;DHT22;13713;52.552;13.204;2023-05-07T01:10:43;17.50;57.00
25906;DHT22;13713;52.552;13.204;2023-05-07T01:13:10;17.50;57.00
25906;DHT22;13713;52.552;13.204;2023-05-07T01:15:38;17.50;57.00
25906;DHT22;13713;52.552;13.204;2023-05-07T01:18:04;17.60;57.10
25906;DHT22;13713;52.552;13.204;2023-05-07T01:20:33;17.50;57.00
25906;DHT22;13713;52.552;13.204;2023-05-07T01:23:00;17.50;57.60
25906;DHT22;13713;52.552;13.204;2023-05-07T01:25:27;17.50;57.00
25906;DHT22;13713;52.552;13.204;2023-05-07T01:27:56;17.50;57.00
25906;DHT22;13713;52.552;13.204;2023-05-07T01:30:26;17.60;57.10
25906;DHT22;13713;52.552;13.204;2023-05-07T01:32:59;17.50;57.00
25906;DHT22;13713;52.552;13.204;2023-05-07T01:35:30;17.50;57.00
25906;DHT22;13713;52.552;13.204;2023-05-07T01:37:58;17.50;57.00
25906;DHT22;13713;52.552;13.204;2023-05-07T01:40:25;17.50;57.00
25906;DHT22;13713;52.552;13.204;2023-05-07T01:42:51;17.50;57.10
25906;DHT22;13713;52.552;13.204;2023-05-07T01:45:17;17.50;57.10
25906;DHT22;13713;52.552;13.204;2023-05-07T01:47:44;17.50;57.10
25906;DHT22;13713;52.552;13.204;2023-05-07T01:50:10;17.50;57.10
25906;DHT22;13713;52.552;13.204;2023-05-07T01:52:37;17.50;57.10
25906;DHT22;13713;52.552;13.204;2023-05-07T01:55:05;17.50;57.10
25906;DHT22;13713;52.552;13.204;2023-05-07T01:57:31;17.50;57.10
25906;DHT22;13713;52.552;13.204;2023-05-07T02:00:31;17.50;57.10
25906;DHT22;13713;52.552;13.204;2023-05-07T02:02:57;17.50;57.10
25906;DHT22;13713;52.552;13.204;2023-05-07T02:05:31;17.50;57.10
25906;DHT22;13713;52.552;13.204;2023-05-07T02:08:03;17.50;57.10
25906;DHT22;13713;52.552;13.204;2023-05-07T02:10:30;17.50;57.10
25906;DHT22;13713;52.552;13.204;2023-05-07T02:12:56;17.50;57.10
25906;DHT22;13713;52.552;13.204;2023-05-07T02:15:21;17.50;57.10
25906;DHT22;13713;52.552;13.204;2023-05-07T02:18:05;17.50;57.10
25906;DHT22;13713;52.552;13.204;2023-05-07T02:20:37;17.50;57.10
25906;DHT22;13713;52.552;13.204;2023-05-07T02:23:03;17.50;57.10
25906;DHT22;13713;52.552;13.204;2023-05-07T02:25:29;17.50;57.10
25906;DHT22;13713;52.552;13.204;2023-05-07T02:27:55;17.50;57.10
25906;DHT22;13713;52.552;13.204;2023-05-07T02:30:27;17.50;57.20
25906;DHT22;13713;52.552;13.204;2023-05-07T02:32:55;17.50;57.20
25906;DHT22;13713;52.552;13.204;2023-05-07T02:35:21;17.50;57.10
25906;DHT22;13713;52.552;13.204;2023-05-07T02:37:47;17.50;57.10
25906;DHT22;13713;52.552;13.204;2023-05-07T02:40:13;17.40;57.10
25906;DHT22;13713;52.552;13.204;2023-05-07T02:42:39;17.40;57.10
25906;DHT22;13713;52.552;13.204;2023-05-07T02:45:05;17.50;57.20
25906;DHT22;13713;52.552;13.204;2023-05-07T02:47:31;17.40;57.20
25906;DHT22;13713;52.552;13.204;2023-05-07T02:50:00;17.40;57.10
25906;DHT22;13713;52.552;13.204;2023-05-07T02:52:25;17.40;57.20
25906;DHT22;13713;52.552;13.204;2023-05-07T02:54:51;17.50;57.20
25906;DHT22;13713;52.552;13.204;2023-05-07T02:57:17;17.40;57.20
25906;DHT22;13713;52.552;13.204;2023-05-07T02:59:43;17.40;57.20
25906;DHT22;13713;52.552;13.204;2023-05-07T03:02:09;17.40;57.20
25906;DHT22;13713;52.552;13.204;2023-05-07T03:04:36;17.40;57.20
25906;DHT22;13713;52.552;13.204;2023-05-07T03:07:01;17.40;57.20
25906;DHT22;13713;52.552;13.204;2023-05-07T03:09:27;17.40;57.10
25906;DHT22;13713;52.552;13.204;2023-05-07T03:11:53;17.40;57.20
25906;DHT22;13713;52.552;13.204;2023-05-07T03:14:18;17.40;57.20
25906;DHT22;13713;52.552;13.204;2023-05-07T03:16:44;17.40;57.20
25906;DHT22;13713;52.552;13.204;2023-05-07T03:19:10;17.40;57.20
25906;DHT22;13713;52.552;13.204;2023-05-07T03:21:35;17.40;57.20
25906;DHT22;13713;52.552;13.204;2023-05-07T03:24:01;17.40;57.20
25906;DHT22;13713;52.552;13.204;2023-05-07T03:26:27;17.40;57.20
25906;DHT22;13713;52.552;13.204;2023-05-07T03:28:53;17.40;57.20
25906;DHT22;13713;52.552;13.204;2023-05-07T03:31:18;17.40;57.20
25906;DHT22;13713;52.552;13.204;2023-05-07T03:33:55;17.40;57.20
25906;DHT22;13713;52.552;13.204;2023-05-07T03:36:23;17.40;57.20
25906;DHT22;13713;52.552;13.204;2023-05-07T03:38:50;17.40;57.20
25906;DHT22;13713;52.552;13.204;2023-05-07T03:41:18;17.40;57.20
25906;DHT22;13713;52.552;13.204;2023-05-07T03:43:45;17.40;57.20
25906;DHT22;13713;52.552;13.204;2023-05-07T03:46:12;17.40;57.20
25906;DHT22;13713;52.552;13.204;2023-05-07T03:48:38;17.40;57.20
25906;DHT22;13713;52.552;13.204;2023-05-07T03:51:04;17.30;57.10
25906;DHT22;13713;52.552;13.204;2023-05-07T03:53:32;17.40;57.20
25906;DHT22;13713;52.552;13.204;2023-05-07T03:55:58;17.40;57.20
25906;DHT22;13713;52.552;13.204;2023-05-07T03:58:23;17.40;57.20
25906;DHT22;13713;52.552;13.204;2023-05-07T04:00:50;17.30;57.10
25906;DHT22;13713;52.552;13.204;2023-05-07T04:03:24;17.40;57.20
25906;DHT22;13713;52.552;13.204;2023-05-07T04:05:50;17.40;57.20
25906;DHT22;13713;52.552;13.204;2023-05-07T04:08:16;17.40;57.20
25906;DHT22;13713;52.552;13.204;2023-05-07T04:10:46;17.40;57.20
25906;DHT22;13713;52.552;13.204;2023-05-07T04:13:12;17.40;57.20
25906;DHT22;13713;52.552;13.204;2023-05-07T04:15:38;17.40;57.20
25906;DHT22;13713;52.552;13.204;2023-05-07T04:18:07;17.40;57.20
25906;DHT22;13713;52.552;13.204;2023-05-07T04:20:34;17.40;57.20
25906;DHT22;13713;52.552;13.204;2023-05-07T04:23:03;17.40;57.20
25906;DHT22;13713;52.552;13.204;2023-05-07T04:25:29;17.40;57.20
25906;DHT22;13713;52.552;13.204;2023-05-07T04:28:02;17.40;57.20
25906;DHT22;13713;52.552;13.204;2023-05-07T04:30:29;17.40;57.20
25906;DHT22;13713;52.552;13.204;2023-05-07T04:32:56;17.40;57.20
25906;DHT22;13713;52.552;13.204;2023-05-07T04:35:23;17.40;57.20
25906;DHT22;13713;52.552;13.204;2023-05-07T04:37:49;17.40;57.20
25906;DHT22;13713;52.552;13.204;2023-05-07T04:40:16;17.40;57.20
25906;DHT22;13713;52.552;13.204;2023-05-07T04:42:42;17.40;57.20
25906;DHT22;13713;52.552;13.204;2023-05-07T04:45:09;17.40;57.20
25906;DHT22;13713;52.552;13.204;2023-05-07T04:47:38;17.30;57.80
25906;DHT22;13713;52.552;13.204;2023-05-07T04:50:05;17.30;57.10
25906;DHT22;13713;52.552;13.204;2023-05-07T04:52:31;17.30;57.10
25906;DHT22;13713;52.552;13.204;2023-05-07T04:55:02;17.30;57.10
25906;DHT22;13713;52.552;13.204;2023-05-07T04:57:33;17.30;57.10
25906;DHT22;13713;52.552;13.204;2023-05-07T04:59:58;17.40;57.20
25906;DHT22;13713;52.552;13.204;2023-05-07T05:02:25;17.40;57.20
25906;DHT22;13713;52.552;13.204;2023-05-07T05:04:51;17.40;57.20
25906;DHT22;13713;52.552;13.204;2023-05-07T05:07:17;17.30;57.10
25906;DHT22;13713;52.552;13.204;2023-05-07T05:09:43;17.30;57.20
25906;DHT22;13713;52.552;13.204;2023-05-07T05:12:09;17.30;57.20
25906;DHT22;13713;52.552;13.204;2023-05-07T05:14:36;17.30;57.10
25906;DHT22;13713;52.552;13.204;2023-05-07T05:17:03;17.30;57.10
25906;DHT22;13713;52.552;13.204;2023-05-07T05:19:29;17.20;57.10
25906;DHT22;13713;52.552;13.204;2023-05-07T05:21:54;17.30;57.10
25906;DHT22;13713;52.552;13.204;2023-05-07T05:24:20;17.30;57.10
25906;DHT22;13713;52.552;13.204;2023-05-07T05:26:46;17.30;57.10
25906;DHT22;13713;52.552;13.204;2023-05-07T05:29:12;17.30;57.10
25906;DHT22;13713;52.552;13.204;2023-05-07T05:31:40;17.30;57.20
25906;DHT22;13713;52.552;13.204;2023-05-07T05:34:07;17.40;57.80
25906;DHT22;13713;52.552;13.204;2023-05-07T05:36:33;17.30;57.20
25906;DHT22;13713;52.552;13.204;2023-05-07T05:39:00;17.30;57.20
25906;DHT22;13713;52.552;13.204;2023-05-07T05:41:26;17.30;57.70
25906;DHT22;13713;52.552;13.204;2023-05-07T05:43:52;17.30;57.20
25906;DHT22;13713;52.552;13.204;2023-05-07T05:46:20;17.30;57.10
25906;DHT22;13713;52.552;13.204;2023-05-07T05:48:49;17.30;57.10
25906;DHT22;13713;52.552;13.204;2023-05-07T05:51:15;17.30;57.10
25906;DHT22;13713;52.552;13.204;2023-05-07T05:53:41;17.30;57.10
25906;DHT22;13713;52.552;13.204;2023-05-07T05:56:07;17.30;57.10
25906;DHT22;13713;52.552;13.204;2023-05-07T05:58:34;17.30;57.10
25906;DHT22;13713;52.552;13.204;2023-05-07T06:01:04;17.30;57.10
25906;DHT22;13713;52.552;13.204;2023-05-07T06:03:31;17.30;57.10
25906;DHT22;13713;52.552;13.204;2023-05-07T06:06:00;17.40;57.20
25906;DHT22;13713;52.552;13.204;2023-05-07T06:08:29;17.30;57.10
25906;DHT22;13713;52.552;13.204;2023-05-07T06:10:56;17.30;57.10
25906;DHT22;13713;52.552;13.204;2023-05-07T06:13:22;17.30;57.10
25906;DHT22;13713;52.552;13.204;2023-05-07T06:15:49;17.40;57.20
25906;DHT22;13713;52.552;13.204;2023-05-07T06:18:16;17.40;57.20
25906;DHT22;13713;52.552;13.204;2023-05-07T06:20:41;17.40;57.10
25906;DHT22;13713;52.552;13.204;2023-05-07T06:23:14;17.40;57.10
25906;DHT22;13713;52.552;13.204;2023-05-07T06:25:39;17.40;57.10
25906;DHT22;13713;52.552;13.204;2023-05-07T06:28:06;17.50;57.00
25906;DHT22;13713;52.552;13.204;2023-05-07T06:30:35;17.60;57.00
25906;DHT22;13713;52.552;13.204;2023-05-07T06:33:01;17.60;57.00
25906;DHT22;13713;52.552;13.204;2023-05-07T06:35:27;17.60;56.90
25906;DHT22;13713;52.552;13.204;2023-05-07T06:37:53;17.60;56.90
25906;DHT22;13713;52.552;13.204;2023-05-07T06:40:23;17.60;56.80
25906;DHT22;13713;52.552;13.204;2023-05-07T06:42:48;17.60;56.80
25906;DHT22;13713;52.552;13.204;2023-05-07T06:45:26;17.60;56.90
25906;DHT22;13713;52.552;13.204;2023-05-07T06:47:54;17.60;56.90
25906;DHT22;13713;52.552;13.204;2023-05-07T06:50:20;17.70;56.90
25906;DHT22;13713;52.552;13.204;2023-05-07T06:52:47;17.60;56.90
25906;DHT22;13713;52.552;13.204;2023-05-07T06:55:13;17.60;57.00
25906;DHT22;13713;52.552;13.204;2023-05-07T06:57:38;17.60;56.90
25906;DHT22;13713;52.552;13.204;2023-05-07T07:00:05;17.60;57.60
25906;DHT22;13713;52.552;13.204;2023-05-07T07:02:41;17.60;57.00
25906;DHT22;13713;52.552;13.204;2023-05-07T07:05:09;17.60;57.00
25906;DHT22;13713;52.552;13.204;2023-05-07T07:07:34;17.50;56.90
25906;DHT22;13713;52.552;13.204;2023-05-07T07:10:00;17.50;57.00
25906;DHT22;13713;52.552;13.204;2023-05-07T07:12:28;17.60;57.00
25906;DHT22;13713;52.552;13.204;2023-05-07T07:14:54;17.60;57.00
25906;DHT22;13713;52.552;13.204;2023-05-07T07:17:20;17.60;57.00
25906;DHT22;13713;52.552;13.204;2023-05-07T07:19:45;17.60;57.00
25906;DHT22;13713;52.552;13.204;2023-05-07T07:22:11;17.60;57.00
25906;DHT22;13713;52.552;13.204;2023-05-07T07:24:38;17.60;57.00
25906;DHT22;13713;52.552;13.204;2023-05-07T07:27:06;17.60;57.00
25906;DHT22;13713;52.552;13.204;2023-05-07T07:29:33;17.60;57.00
25906;DHT22;13713;52.552;13.204;2023-05-07T07:31:59;17.60;57.00
25906;DHT22;13713;52.552;13.204;2023-05-07T07:34:25;17.50;56.90
25906;DHT22;13713;52.552;13.204;2023-05-07T07:36:51;17.60;57.00
25906;DHT22;13713;52.552;13.204;2023-05-07T07:39:18;17.60;57.00
25906;DHT22;13713;52.552;13.204;2023-05-07T07:41:45;17.60;57.00
25906;DHT22;13713;52.552;13.204;2023-05-07T07:44:12;17.60;57.00
25906;DHT22;13713;52.552;13.204;2023-05-07T07:46:39;17.60;57.00
25906;DHT22;13713;52.552;13.204;2023-05-07T07:49:06;17.60;56.90
25906;DHT22;13713;52.552;13.204;2023-05-07T07:51:32;17.60;56.90
25906;DHT22;13713;52.552;13.204;2023-05-07T07:53:59;17.60;56.90
25906;DHT22;13713;52.552;13.204;2023-05-07T07:56:24;17.60;56.90
25906;DHT22;13713;52.552;13.204;2023-05-07T07:58:51;17.60;57.00
25906;DHT22;13713;52.552;13.204;2023-05-07T08:01:18;17.60;56.90
25906;DHT22;13713;52.552;13.204;2023-05-07T08:03:45;17.60;56.90
25906;DHT22;13713;52.552;13.204;2023-05-07T08:06:11;17.60;56.90
25906;DHT22;13713;52.552;13.204;2023-05-07T08:08:37;17.60;56.90
25906;DHT22;13713;52.552;13.204;2023-05-07T08:11:03;17.60;56.90
25906;DHT22;13713;52.552;13.204;2023-05-07T08:13:31;17.70;56.90
25906;DHT22;13713;52.552;13.204;2023-05-07T08:15:58;17.80;57.00
25906;DHT22;13713;52.552;13.204;2023-05-07T08:18:25;17.70;56.90
25906;DHT22;13713;52.552;13.204;2023-05-07T08:20:52;17.70;56.90
25906;DHT22;13713;52.552;13.204;2023-05-07T08:23:21;17.70;56.90
25906;DHT22;13713;52.552;13.204;2023-05-07T08:25:48;17.70;56.90
25906;DHT22;13713;52.552;13.204;2023-05-07T08:28:15;17.70;56.90
25906;DHT22;13713;52.552;13.204;2023-05-07T08:30:41;17.70;56.90
25906;DHT22;13713;52.552;13.204;2023-05-07T08:33:08;17.70;56.90
25906;DHT22;13713;52.552;13.204;2023-05-07T08:35:34;17.70;56.90
25906;DHT22;13713;52.552;13.204;2023-05-07T08:38:00;17.70;57.10
25906;DHT22;13713;52.552;13.204;2023-05-07T08:40:26;17.70;56.80
25906;DHT22;13713;52.552;13.204;2023-05-07T08:42:54;17.70;56.90
25906;DHT22;13713;52.552;13.204;2023-05-07T08:45:23;17.70;56.80
25906;DHT22;13713;52.552;13.204;2023-05-07T08:47:55;17.70;56.90
25906;DHT22;13713;52.552;13.204;2023-05-07T08:50:26;17.80;56.90
25906;DHT22;13713;52.552;13.204;2023-05-07T08:52:52;17.80;56.90
25906;DHT22;13713;52.552;13.204;2023-05-07T08:55:20;17.70;56.80
25906;DHT22;13713;52.552;13.204;2023-05-07T08:57:46;17.70;56.80
25906;DHT22;13713;52.552;13.204;2023-05-07T09:00:14;17.70;56.80
25906;DHT22;13713;52.552;13.204;2023-05-07T09:02:41;17.70;56.80
25906;DHT22;13713;52.552;13.204;2023-05-07T09:05:09;17.80;56.90
25906;DHT22;13713;52.552;13.204;2023-05-07T09:07:35;17.70;56.80
25906;DHT22;13713;52.552;13.204;2023-05-07T09:10:05;17.80;56.90
25906;DHT22;13713;52.552;13.204;2023-05-07T09:12:32;17.70;56.80
25906;DHT22;13713;52.552;13.204;2023-05-07T09:15:01;17.70;56.80
25906;DHT22;13713;52.552;13.204;2023-05-07T09:17:28;17.80;56.90
25906;DHT22;13713;52.552;13.204;2023-05-07T09:19:54;17.80;56.80
25906;DHT22;13713;52.552;13.204;2023-05-07T09:22:19;17.80;56.90
25906;DHT22;13713;52.552;13.204;2023-05-07T09:24:58;17.70;56.80
25906;DHT22;13713;52.552;13.204;2023-05-07T09:27:26;17.70;56.80
25906;DHT22;13713;52.552;13.204;2023-05-07T09:29:53;17.80;56.90
25906;DHT22;13713;52.552;13.204;2023-05-07T09:32:19;17.70;56.80
25906;DHT22;13713;52.552;13.204;2023-05-07T09:34:45;17.80;56.90
25906;DHT22;13713;52.552;13.204;2023-05-07T09:37:13;17.80;56.80
25906;DHT22;13713;52.552;13.204;2023-05-07T09:39:41;17.70;56.80
25906;DHT22;13713;52.552;13.204;2023-05-07T09:42:08;17.80;56.90
25906;DHT22;13713;52.552;13.204;2023-05-07T09:44:35;17.80;56.90
25906;DHT22;13713;52.552;13.204;2023-05-07T09:47:07;17.80;56.90
25906;DHT22;13713;52.552;13.204;2023-05-07T09:49:39;17.80;56.90
25906;DHT22;13713;52.552;13.204;2023-05-07T09:52:10;17.80;56.90
25906;DHT22;13713;52.552;13.204;2023-05-07T09:54:41;17.80;56.90
25906;DHT22;13713;52.552;13.204;2023-05-07T09:57:11;17.80;56.80
25906;DHT22;13713;52.552;13.204;2023-05-07T09:59:42;17.80;56.90
25906;DHT22;13713;52.552;13.204;2023-05-07T10:02:10;17.80;56.90
25906;DHT22;13713;52.552;13.204;2023-05-07T10:04:44;17.80;56.80
25906;DHT22;13713;52.552;13.204;2023-05-07T10:07:11;17.80;56.80
25906;DHT22;13713;52.552;13.204;2023-05-07T10:09:38;17.80;56.80
25906;DHT22;13713;52.552;13.204;2023-05-07T10:12:12;17.80;56.90
25906;DHT22;13713;52.552;13.204;2023-05-07T10:14:38;17.80;56.80
25906;DHT22;13713;52.552;13.204;2023-05-07T10:17:05;17.80;56.80
25906;DHT22;13713;52.552;13.204;2023-05-07T10:19:32;17.80;56.80
25906;DHT22;13713;52.552;13.204;2023-05-07T10:22:03;17.80;56.80
25906;DHT22;13713;52.552;13.204;2023-05-07T10:24:34;17.80;56.80
25906;DHT22;13713;52.552;13.204;2023-05-07T10:27:08;17.80;56.80
25906;DHT22;13713;52.552;13.204;2023-05-07T10:32:47;17.80;56.80
25906;DHT22;13713;52.552;13.204;2023-05-07T10:35:25;17.80;56.80
25906;DHT22;13713;52.552;13.204;2023-05-07T10:37:52;17.70;56.80
25906;DHT22;13713;52.552;13.204;2023-05-07T10:40:21;17.80;56.80
25906;DHT22;13713;52.552;13.204;2023-05-07T10:43:01;17.80;56.80
25906;DHT22;13713;52.552;13.204;2023-05-07T10:45:32;17.80;56.80
25906;DHT22;13713;52.552;13.204;2023-05-07T10:48:13;17.80;56.80
25906;DHT22;13713;52.552;13.204;2023-05-07T10:50:44;17.80;56.90
25906;DHT22;13713;52.552;13.204;2023-05-07T10:55:45;17.80;56.80
25906;DHT22;13713;52.552;13.204;2023-05-07T10:58:27;17.80;56.80
25906;DHT22;13713;52.552;13.204;2023-05-07T11:01:05;17.80;56.80
25906;DHT22;13713;52.552;13.204;2023-05-07T11:04:13;17.80;56.80
25906;DHT22;13713;52.552;13.204;2023-05-07T11:06:41;17.80;56.80
25906;DHT22;13713;52.552;13.204;2023-05-07T11:09:09;17.80;56.80
25906;DHT22;13713;52.552;13.204;2023-05-07T11:11:47;17.80;56.80
25906;DHT22;13713;52.552;13.204;2023-05-07T11:17:09;17.80;56.80
25906;DHT22;13713;52.552;13.204;2023-05-07T11:19:53;17.80;56.90
25906;DHT22;13713;52.552;13.204;2023-05-07T11:25:25;17.80;56.80
25906;DHT22;13713;52.552;13.204;2023-05-07T11:28:17;17.80;56.80
25906;DHT22;13713;52.552;13.204;2023-05-07T11:30:51;17.80;56.80
25906;DHT22;13713;52.552;13.204;2023-05-07T11:33:19;17.80;56.80
25906;DHT22;13713;52.552;13.204;2023-05-07T11:35:47;17.80;56.80
25906;DHT22;13713;52.552;13.204;2023-05-07T11:38:15;17.80;56.80
25906;DHT22;13713;52.552;13.204;2023-05-07T11:40:55;17.80;56.80
25906;DHT22;13713;52.552;13.204;2023-05-07T11:43:21;17.80;56.80
25906;DHT22;13713;52.552;13.204;2023-05-07T11:45:48;17.80;56.80
25906;DHT22;13713;52.552;13.204;2023-05-07T11:48:15;17.80;56.80
25906;DHT22;13713;52.552;13.204;2023-05-07T11:51:00;17.80;56.80
25906;DHT22;13713;52.552;13.204;2023-05-07T11:53:26;17.80;56.80
25906;DHT22;13713;52.552;13.204;2023-05-07T11:55:56;17.80;56.80
25906;DHT22;13713;52.552;13.204;2023-05-07T11:58:23;17.80;56.80
25906;DHT22;13713;52.552;13.204;2023-05-07T12:00:53;17.80;56.80
25906;DHT22;13713;52.552;13.204;2023-05-07T12:03:19;17.80;56.80
25906;DHT22;13713;52.552;13.204;2023-05-07T12:05:46;17.80;56.80
25906;DHT22;13713;52.552;13.204;2023-05-07T12:08:18;17.70;56.70
25906;DHT22;13713;52.552;13.204;2023-05-07T12:10:47;17.80;56.80
25906;DHT22;13713;52.552;13.204;2023-05-07T12:13:24;17.70;56.70
25906;DHT22;13713;52.552;13.204;2023-05-07T12:15:54;17.80;56.80
25906;DHT22;13713;52.552;13.204;2023-05-07T12:18:21;17.80;56.80
25906;DHT22;13713;52.552;13.204;2023-05-07T12:20:47;17.80;56.80
25906;DHT22;13713;52.552;13.204;2023-05-07T12:23:13;17.80;56.80
25906;DHT22;13713;52.552;13.204;2023-05-07T12:25:40;17.80;56.80
25906;DHT22;13713;52.552;13.204;2023-05-07T12:28:13;17.80;56.80
25906;DHT22;13713;52.552;13.204;2023-05-07T12:30:41;17.80;56.70
25906;DHT22;13713;52.552;13.204;2023-05-07T12:33:07;17.70;56.70
25906;DHT22;13713;52.552;13.204;2023-05-07T12:35:40;17.80;56.70
25906;DHT22;13713;52.552;13.204;2023-05-07T12:38:12;17.80;56.80
25906;DHT22;13713;52.552;13.204;2023-05-07T12:40:40;17.80;56.80
25906;DHT22;13713;52.552;13.204;2023-05-07T12:43:06;17.70;56.70
25906;DHT22;13713;52.552;13.204;2023-05-07T12:45:37;17.80;56.70
25906;DHT22;13713;52.552;13.204;2023-05-07T12:48:03;17.70;56.70
25906;DHT22;13713;52.552;13.204;2023-05-07T12:50:33;17.80;56.80
25906;DHT22;13713;52.552;13.204;2023-05-07T12:52:59;17.80;56.80
25906;DHT22;13713;52.552;13.204;2023-05-07T12:55:25;17.80;56.70
25906;DHT22;13713;52.552;13.204;2023-05-07T12:57:52;17.80;56.70
25906;DHT22;13713;52.552;13.204;2023-05-07T13:00:35;17.80;56.70
25906;DHT22;13713;52.552;13.204;2023-05-07T13:03:01;17.80;56.70
25906;DHT22;13713;52.552;13.204;2023-05-07T13:05:27;17.80;56.80
25906;DHT22;13713;52.552;13.204;2023-05-07T13:07:56;17.80;56.70
25906;DHT22;13713;52.552;13.204;2023-05-07T13:10:23;17.80;56.70
25906;DHT22;13713;52.552;13.204;2023-05-07T13:12:49;17.80;56.70
25906;DHT22;13713;52.552;13.204;2023-05-07T13:15:15;17.80;56.80
25906;DHT22;13713;52.552;13.204;2023-05-07T13:17:41;17.80;56.80
25906;DHT22;13713;52.552;13.204;2023-05-07T13:20:11;17.80;56.80
25906;DHT22;13713;52.552;13.204;2023-05-07T13:22:39;17.80;56.70
25906;DHT22;13713;52.552;13.204;2023-05-07T13:25:05;17.70;56.70
25906;DHT22;13713;52.552;13.204;2023-05-07T13:27:31;17.80;56.70
25906;DHT22;13713;52.552;13.204;2023-05-07T13:29:57;17.80;56.70
25906;DHT22;13713;52.552;13.204;2023-05-07T13:32:23;17.80;56.70
25906;DHT22;13713;52.552;13.204;2023-05-07T13:34:48;17.80;56.70
25906;DHT22;13713;52.552;13.204;2023-05-07T13:37:14;17.90;56.80
25906;DHT22;13713;52.552;13.204;2023-05-07T13:39:40;17.80;56.70
25906;DHT22;13713;52.552;13.204;2023-05-07T13:42:06;17.80;56.70
25906;DHT22;13713;52.552;13.204;2023-05-07T13:44:32;17.70;56.70
25906;DHT22;13713;52.552;13.204;2023-05-07T13:46:58;17.70;56.70
25906;DHT22;13713;52.552;13.204;2023-05-07T13:49:24;17.80;56.80
25906;DHT22;13713;52.552;13.204;2023-05-07T13:51:49;17.80;56.70
25906;DHT22;13713;52.552;13.204;2023-05-07T13:54:15;17.70;56.70
25906;DHT22;13713;52.552;13.204;2023-05-07T13:56:41;17.70;56.70
25906;DHT22;13713;52.552;13.204;2023-05-07T13:59:07;17.70;57.30
25906;DHT22;13713;52.552;13.204;2023-05-07T14:01:33;17.80;56.70
25906;DHT22;13713;52.552;13.204;2023-05-07T14:03:58;17.80;56.70
25906;DHT22;13713;52.552;13.204;2023-05-07T14:06:25;17.80;56.70
25906;DHT22;13713;52.552;13.204;2023-05-07T14:08:51;17.80;56.70
25906;DHT22;13713;52.552;13.204;2023-05-07T14:11:16;17.70;56.70
25906;DHT22;13713;52.552;13.204;2023-05-07T14:13:42;17.80;56.80
25906;DHT22;13713;52.552;13.204;2023-05-07T14:16:08;17.70;56.70
25906;DHT22;13713;52.552;13.204;2023-05-07T14:18:33;17.70;56.60
25906;DHT22;13713;52.552;13.204;2023-05-07T14:21:00;17.70;56.60
25906;DHT22;13713;52.552;13.204;2023-05-07T14:23:26;17.70;56.60
25906;DHT22;13713;52.552;13.204;2023-05-07T14:25:54;17.70;56.60
25906;DHT22;13713;52.552;13.204;2023-05-07T14:28:22;17.70;56.60
25906;DHT22;13713;52.552;13.204;2023-05-07T14:30:48;17.70;56.60
25906;DHT22;13713;52.552;13.204;2023-05-07T14:33:14;17.70;56.60
25906;DHT22;13713;52.552;13.204;2023-05-07T14:35:40;17.70;56.50
25906;DHT22;13713;52.552;13.204;2023-05-07T14:38:05;17.70;56.50
25906;DHT22;13713;52.552;13.204;2023-05-07T14:40:31;17.80;56.60
25906;DHT22;13713;52.552;13.204;2023-05-07T14:42:57;17.80;56.50
25906;DHT22;13713;52.552;13.204;2023-05-07T14:45:23;17.70;56.50
25906;DHT22;13713;52.552;13.204;2023-05-07T14:47:49;17.70;56.50
25906;DHT22;13713;52.552;13.204;2023-05-07T14:50:14;17.70;56.50
25906;DHT22;13713;52.552;13.204;2023-05-07T14:52:40;17.70;56.50
25906;DHT22;13713;52.552;13.204;2023-05-07T14:55:06;17.60;56.40
25906;DHT22;13713;52.552;13.204;2023-05-07T14:57:31;17.70;56.50
25906;DHT22;13713;52.552;13.204;2023-05-07T15:00:01;17.70;56.50
25906;DHT22;13713;52.552;13.204;2023-05-07T15:02:27;17.80;56.50
25906;DHT22;13713;52.552;13.204;2023-05-07T15:04:53;17.70;56.50
25906;DHT22;13713;52.552;13.204;2023-05-07T15:07:18;17.80;56.50
25906;DHT22;13713;52.552;13.204;2023-05-07T15:09:44;17.80;56.50
25906;DHT22;13713;52.552;13.204;2023-05-07T15:12:10;17.80;56.50
25906;DHT22;13713;52.552;13.204;2023-05-07T15:14:37;17.70;56.50
25906;DHT22;13713;52.552;13.204;2023-05-07T15:17:03;17.70;56.50
25906;DHT22;13713;52.552;13.204;2023-05-07T15:19:29;17.70;56.50
25906;DHT22;13713;52.552;13.204;2023-05-07T15:21:59;17.70;56.50
25906;DHT22;13713;52.552;13.204;2023-05-07T15:24:28;17.70;56.50
25906;DHT22;13713;52.552;13.204;2023-05-07T15:26:54;17.70;56.50
25906;DHT22;13713;52.552;13.204;2023-05-07T15:29:20;17.80;56.50